Time;durP1;ratioP1;P1;durP2;ratioP2;P2;SDS_P1;SDS_P2;PMS_P1;PMS_P2;Temp;Humidity;BMP_temperature;BMP_pressure;BME280_temperature;BME280_humidity;BME280_pressure;Samples;Min_cycle;Max_cycle;Signal;HPM_P1;HPM_P2
2022/11/12 00:00:31;;;;;;;0.40;0.40;;;;;;;12.72;89.68;101159.63;5067723;28;20025;-73
2022/11/12 00:02:57;;;;;;;0.85;0.85;;;;;;;12.65;89.53;101147.50;5067717;28;20095;-74
2022/11/12 00:05:22;;;;;;;0.40;0.40;;;;;;;12.69;89.65;101146.59;5068060;28;20029;-74
2022/11/12 00:07:48;;;;;;;0.55;0.55;;;;;;;12.70;89.31;101144.88;5067414;28;20124;-72
2022/11/12 00:10:14;;;;;;;0.40;0.40;;;;;;;12.67;89.65;101155.31;5067756;28;20032;-74
2022/11/12 00:12:39;;;;;;;0.40;0.40;;;;;;;12.66;89.63;101156.16;5067473;28;20029;-74
2022/11/12 00:15:05;;;;;;;0.47;0.47;;;;;;;12.68;89.58;101157.91;5066296;28;20021;-74
2022/11/12 00:17:30;;;;;;;1.30;1.30;;;;;;;12.68;89.73;101146.63;5067384;28;20027;-73
2022/11/12 00:19:56;;;;;;;0.45;0.45;;;;;;;12.67;89.53;101121.44;5066132;28;20035;-74
2022/11/12 00:22:21;;;;;;;0.47;0.47;;;;;;;12.67;89.83;101139.69;5067547;28;20021;-74
2022/11/12 00:24:47;;;;;;;0.85;0.85;;;;;;;12.68;90.27;101144.88;5067417;28;20037;-74
2022/11/12 00:27:12;;;;;;;0.30;0.30;;;;;;;12.68;90.12;101144.88;5065775;28;20100;-75
2022/11/12 00:29:37;;;;;;;0.40;0.40;;;;;;;12.70;89.71;101150.94;5067184;28;20043;-73
2022/11/12 00:32:05;;;;;;;0.40;0.40;;;;;;;12.75;90.01;101158.72;5065910;28;20025;-74
2022/11/12 00:34:31;;;;;;;0.40;0.40;;;;;;;12.74;89.75;101133.56;5065861;28;20025;-76
2022/11/12 00:36:56;;;;;;;0.45;0.45;;;;;;;12.73;89.55;101126.63;5067164;28;20079;-73
2022/11/12 00:39:21;;;;;;;1.23;1.23;;;;;;;12.77;89.74;101160.47;5067155;28;20021;-75
2022/11/12 00:41:47;;;;;;;1.20;1.13;;;;;;;12.81;89.71;101156.06;5066990;28;20484;-75
2022/11/12 00:44:12;;;;;;;0.45;0.45;;;;;;;12.81;89.24;101124.81;5066563;28;20028;-74
2022/11/12 00:46:37;;;;;;;2.15;1.95;;;;;;;12.81;89.41;101116.16;5066145;28;20029;-74
2022/11/12 00:49:03;;;;;;;0.40;0.40;;;;;;;12.78;89.24;101145.66;5065472;28;20021;-75
2022/11/12 00:51:28;;;;;;;0.77;0.77;;;;;;;12.81;89.24;101135.22;5065207;28;20029;-75
2022/11/12 00:53:53;;;;;;;2.38;2.15;;;;;;;12.78;89.40;101127.44;5066645;28;20036;-74
2022/11/12 00:56:19;;;;;;;0.40;0.40;;;;;;;12.85;89.15;101141.28;5066922;28;20096;-74
2022/11/12 00:58:44;;;;;;;0.40;0.40;;;;;;;12.82;89.21;101136.97;5066522;28;20024;-74
2022/11/12 01:01:12;;;;;;;0.40;0.40;;;;;;;12.88;88.85;101136.94;5066764;28;20122;-74
2022/11/12 01:03:39;;;;;;;0.40;0.40;;;;;;;12.88;88.81;101147.38;5081838;28;20021;-74
2022/11/12 01:06:09;;;;;;;0.30;0.30;;;;;;;12.87;89.15;101156.06;5066710;28;20025;-74
2022/11/12 01:08:35;;;;;;;0.40;0.40;;;;;;;12.88;89.11;101146.50;5066513;28;20104;-76
2022/11/12 01:11:06;;;;;;;0.40;0.40;;;;;;;12.85;89.10;101144.78;5066475;28;20380;-75
2022/11/12 01:13:31;;;;;;;1.20;1.20;;;;;;;12.86;88.82;101156.06;5066247;28;20048;-73
2022/11/12 01:15:56;;;;;;;0.77;0.77;;;;;;;12.82;88.99;101142.19;5066337;28;20477;-75
2022/11/12 01:18:22;;;;;;;0.63;0.63;;;;;;;12.85;89.06;101150.00;5064730;28;20048;-72
2022/11/12 01:20:47;;;;;;;0.73;0.73;;;;;;;12.89;89.06;101163.88;5066340;28;20059;-75
2022/11/12 01:23:12;;;;;;;9.07;2.55;;;;;;;12.74;89.00;101143.97;5066246;28;20013;-77
2022/11/12 01:25:37;;;;;;;0.40;0.40;;;;;;;12.84;89.10;101156.06;5064625;28;20534;-76
2022/11/12 01:28:03;;;;;;;0.50;0.50;;;;;;;12.88;89.13;101168.22;5065970;28;20024;-72
2022/11/12 01:30:28;;;;;;;0.50;0.50;;;;;;;12.87;88.75;101148.25;5065950;28;20416;-74
2022/11/12 01:32:54;;;;;;;1.38;1.38;;;;;;;12.86;88.94;101156.06;5064207;28;20060;-74
2022/11/12 01:35:19;;;;;;;0.50;0.50;;;;;;;12.85;88.82;101163.03;5066069;28;20051;-74
2022/11/12 01:37:44;;;;;;;0.50;0.50;;;;;;;12.84;89.15;101153.44;5065900;28;20032;-73
2022/11/12 01:40:10;;;;;;;0.40;0.40;;;;;;;12.80;89.12;101151.75;5064603;28;20028;-75
2022/11/12 01:42:37;;;;;;;0.68;0.68;;;;;;;12.84;89.48;101163.88;5066004;28;20021;-74
2022/11/12 01:45:14;;;;;;;0.40;0.40;;;;;;;12.84;88.97;101163.88;5065880;28;20045;-74
2022/11/12 01:47:41;;;;;;;0.70;0.70;;;;;;;12.85;89.40;101178.66;5065512;28;20025;-75
2022/11/12 01:50:18;;;;;;;0.40;0.40;;;;;;;12.86;89.38;101169.09;5065996;28;20033;-75
2022/11/12 01:52:51;;;;;;;0.35;0.35;;;;;;;12.87;89.38;101173.44;5065955;28;20049;-74
2022/11/12 01:55:27;;;;;;;1.65;1.63;;;;;;;12.85;89.34;101168.22;5064246;28;20175;-74
2022/11/12 01:57:59;;;;;;;0.40;0.40;;;;;;;12.86;89.36;101163.91;5064989;28;20028;-76
2022/11/12 02:00:24;;;;;;;0.30;0.30;;;;;;;12.87;89.10;101176.91;5065158;28;20103;-74
2022/11/12 02:03:01;;;;;;;1.20;0.90;;;;;;;12.86;89.63;101182.13;5064251;28;20414;-74
2022/11/12 02:05:29;;;;;;;0.40;0.40;;;;;;;12.84;89.51;101182.13;5064247;28;20029;-75
2022/11/12 02:07:57;;;;;;;0.40;0.40;;;;;;;12.85;89.51;101177.78;5065474;28;20531;-76
2022/11/12 02:10:22;;;;;;;0.40;0.40;;;;;;;12.82;89.45;101177.78;5065748;28;20033;-74
2022/11/12 02:15:37;;;;;;;0.40;0.40;;;;;;;12.89;89.36;101174.31;5065447;28;20028;-74
2022/11/12 02:18:03;;;;;;;0.40;0.40;;;;;;;12.85;89.29;101173.44;5065436;28;20017;-74
2022/11/12 02:20:33;;;;;;;0.50;0.50;;;;;;;12.88;89.44;101172.56;5065555;28;20100;-75
2022/11/12 02:22:59;;;;;;;0.38;0.38;;;;;;;12.85;89.61;101168.22;5065339;28;20025;-75
2022/11/12 02:25:26;;;;;;;0.40;0.40;;;;;;;12.93;89.37;101182.94;5063935;28;20044;-74
2022/11/12 02:27:53;;;;;;;1.05;1.05;;;;;;;12.94;89.52;101174.28;5063794;28;20028;-75
2022/11/12 02:30:40;;;;;;;0.65;0.65;;;;;;;12.97;89.10;101182.91;5065245;28;20025;-75
2022/11/12 02:33:05;;;;;;;25.67;3.97;;;;;;;12.97;89.10;101182.91;5065359;28;20021;-75
2022/11/12 02:35:31;;;;;;;0.88;0.88;;;;;;;13.00;89.05;101185.50;5065435;28;20031;-74
2022/11/12 02:37:56;;;;;;;1.10;1.02;;;;;;;13.07;88.79;101207.19;5063461;28;20337;-74
2022/11/12 02:40:22;;;;;;;0.93;0.93;;;;;;;13.09;88.55;101201.97;5065345;28;20495;-74
2022/11/12 02:42:47;;;;;;;0.30;0.30;;;;;;;13.05;88.53;101192.44;5065294;28;20029;-74
2022/11/12 02:45:14;;;;;;;0.70;0.70;;;;;;;13.09;88.37;101210.66;5063710;28;20033;-74
2022/11/12 02:47:39;;;;;;;0.50;0.50;;;;;;;13.09;88.66;101196.75;5065175;28;20051;-74
2022/11/12 02:50:05;;;;;;;0.82;0.82;;;;;;;13.09;88.47;101201.97;5063666;28;20410;-73
2022/11/12 02:52:31;;;;;;;2.70;2.47;;;;;;;13.11;88.51;101201.09;5065058;28;20051;-73
2022/11/12 02:54:57;;;;;;;0.57;0.57;;;;;;;13.10;88.29;101199.34;5063505;28;20045;-76
2022/11/12 02:57:22;;;;;;;0.40;0.40;;;;;;;13.10;88.35;101201.97;5063561;28;20027;-74
2022/11/12 02:59:47;;;;;;;0.40;0.40;;;;;;;13.14;88.47;101203.69;5064712;28;20024;-74
2022/11/12 03:02:13;;;;;;;0.40;0.40;;;;;;;13.14;88.07;101208.91;5065119;28;20017;-74
2022/11/12 03:04:38;;;;;;;0.40;0.40;;;;;;;13.13;88.30;101201.94;5063514;28;20029;-76
2022/11/12 03:07:03;;;;;;;0.60;0.60;;;;;;;13.12;88.10;101202.81;5064861;28;20021;-75
2022/11/12 03:09:29;;;;;;;0.32;0.32;;;;;;;13.14;88.25;101210.63;5064070;28;20031;-74
2022/11/12 03:11:54;;;;;;;0.32;0.32;;;;;;;13.13;88.28;101217.56;5068886;28;20028;-75
2022/11/12 03:14:19;;;;;;;0.50;0.50;;;;;;;13.19;87.98;101228.84;5068623;28;20492;-74
2022/11/12 03:16:45;;;;;;;0.47;0.47;;;;;;;13.16;88.14;101218.44;5068730;28;20063;-73
2022/11/12 03:19:10;;;;;;;0.40;0.40;;;;;;;13.21;87.98;101241.00;5068655;28;20039;-74
2022/11/12 03:21:36;;;;;;;0.40;0.40;;;;;;;13.18;87.99;101227.13;5067390;28;20032;-74
2022/11/12 03:24:01;;;;;;;0.40;0.40;;;;;;;13.20;88.21;101226.25;5068689;28;20423;-75
2022/11/12 03:26:27;;;;;;;2.00;1.85;;;;;;;13.21;87.85;101235.78;5068466;28;20048;-76
2022/11/12 03:28:52;;;;;;;2.05;1.95;;;;;;;13.19;88.08;101228.84;5067053;28;20027;-75
2022/11/12 03:31:18;;;;;;;5.55;3.00;;;;;;;13.20;88.17;101220.16;5068649;28;20021;-74
2022/11/12 03:33:43;;;;;;;0.43;0.43;;;;;;;13.19;88.12;101218.44;5066939;28;20021;-75
2022/11/12 03:36:09;;;;;;;55.00;5.25;;;;;;;13.21;88.03;101222.75;5068944;28;20025;-75
2022/11/12 03:38:34;;;;;;;0.40;0.40;;;;;;;13.23;88.01;101207.97;5067008;28;20017;-74
2022/11/12 03:40:59;;;;;;;0.50;0.50;;;;;;;13.20;88.23;101227.97;5068139;28;20043;-75
2022/11/12 03:43:24;;;;;;;0.30;0.30;;;;;;;13.18;88.23;101233.19;5068305;28;20021;-75
2022/11/12 03:45:50;;;;;;;0.95;0.95;;;;;;;13.16;88.29;101223.66;5067873;28;20048;-74
2022/11/12 03:48:15;;;;;;;0.47;0.47;;;;;;;13.18;88.45;101234.94;5068268;28;20025;-75
2022/11/12 03:50:41;;;;;;;0.47;0.47;;;;;;;13.20;88.20;101246.22;5068061;28;20404;-75
2022/11/12 03:53:06;;;;;;;4.80;1.50;;;;;;;13.20;88.15;101235.78;5066812;28;20028;-75
2022/11/12 03:55:32;;;;;;;0.30;0.30;;;;;;;13.19;88.06;101241.88;5066574;28;20048;-75
2022/11/12 03:57:58;;;;;;;0.40;0.40;;;;;;;13.17;88.29;101251.44;5067954;28;20025;-76
2022/11/12 04:00:25;;;;;;;0.40;0.40;;;;;;;13.17;88.28;101256.66;5067861;28;20025;-76
2022/11/12 04:02:51;;;;;;;0.40;0.40;;;;;;;13.15;88.48;101256.69;5068107;28;20021;-75
2022/11/12 04:10:55;;;;;;;0.40;0.40;;;;;;;13.12;88.88;101261.91;5068173;28;20040;-76
2022/11/12 04:13:26;;;;;;;0.40;0.40;;;;;;;13.08;88.67;101257.59;5066375;28;20025;-76
2022/11/12 04:26:21;;;;;;;0.40;0.40;;;;;;;13.13;89.15;101281.91;5067721;28;20490;-75
2022/11/12 04:26:59;;;;;;;2.63;2.47;;;;;;;13.06;89.50;101274.97;5066877;28;20029;-75
2022/11/12 04:32:08;;;;;;;0.30;0.30;;;;;;;13.12;89.59;101295.78;5067187;28;20090;-75
2022/11/12 04:34:34;;;;;;;0.55;0.55;;;;;;;13.15;89.30;101295.78;5067323;28;20029;-75
2022/11/12 04:37:02;;;;;;;0.80;0.80;;;;;;;13.12;89.81;101291.47;5067260;28;20056;-77
2022/11/12 04:39:27;;;;;;;4.10;3.72;;;;;;;13.12;89.88;101301.00;5067294;28;20025;-74
2022/11/12 04:47:21;;;;;;;0.60;0.60;;;;;;;13.18;89.83;101310.56;5067250;28;20109;-75
2022/11/12 04:49:46;;;;;;;0.80;0.80;;;;;;;13.18;89.65;101307.97;5067307;28;20495;-76
2022/11/12 04:52:11;;;;;;;0.35;0.35;;;;;;;13.19;89.79;101302.75;5067327;28;20032;-76
2022/11/12 04:54:37;;;;;;;0.35;0.35;;;;;;;13.14;90.13;101310.59;5067037;28;20041;-76
2022/11/12 04:57:02;;;;;;;0.60;0.60;;;;;;;13.13;90.12;101301.00;5065411;28;20392;-75
2022/11/12 04:59:28;;;;;;;0.40;0.40;;;;;;;13.13;90.21;101298.41;5067144;28;20025;-76
2022/11/12 05:01:53;;;;;;;0.40;0.40;;;;;;;13.14;90.17;101304.50;5065448;28;20457;-75
2022/11/12 05:04:18;;;;;;;0.93;0.93;;;;;;;13.07;89.94;101293.22;5065457;28;20032;-75
2022/11/12 05:06:53;;;;;;;0.40;0.40;;;;;;;13.18;90.09;101303.59;5066952;28;20056;-77
2022/11/12 05:09:28;;;;;;;0.40;0.40;;;;;;;13.16;90.08;101305.34;5066759;28;20029;-77
2022/11/12 05:11:54;;;;;;;0.43;0.43;;;;;;;13.12;89.93;101308.84;5066586;28;20101;-76
2022/11/12 05:14:21;;;;;;;0.40;0.40;;;;;;;13.13;90.06;101314.03;5066499;28;20028;-77
2022/11/12 05:16:46;;;;;;;0.30;0.30;;;;;;;13.02;90.00;101301.06;5066613;28;20064;-76
2022/11/12 05:19:12;;;;;;;0.40;0.40;;;;;;;13.15;89.82;101314.03;5066274;28;20025;-76
2022/11/12 05:24:21;;;;;;;5.22;3.55;;;;;;;13.20;89.91;101333.13;5066623;28;20028;-76
2022/11/12 05:26:46;;;;;;;1.13;1.02;;;;;;;13.12;90.00;101353.16;5066161;28;20554;-76
2022/11/12 05:29:12;;;;;;;0.40;0.40;;;;;;;13.18;89.93;101355.72;5064547;28;20373;-76
2022/11/12 05:31:37;;;;;;;0.60;0.60;;;;;;;13.16;89.93;101361.84;5066061;28;20021;-74
2022/11/12 05:34:02;;;;;;;1.83;1.73;;;;;;;13.20;89.94;101369.66;5065910;28;20393;-73
2022/11/12 05:36:28;;;;;;;0.40;0.40;;;;;;;13.18;89.82;101363.56;5066279;28;20096;-76
2022/11/12 05:38:53;;;;;;;1.05;1.05;;;;;;;13.19;89.74;101364.44;5065987;28;20021;-75
2022/11/12 05:41:18;;;;;;;0.40;0.40;;;;;;;13.10;90.00;101342.72;5066011;28;20030;-76
2022/11/12 05:43:44;;;;;;;2.58;2.47;;;;;;;13.19;89.78;101351.41;5065847;28;20016;-74
2022/11/12 05:46:09;;;;;;;3.30;1.85;;;;;;;13.10;90.18;101354.94;5065854;28;20392;-75
2022/11/12 05:48:34;;;;;;;0.40;0.40;;;;;;;13.11;90.09;101349.69;5064469;28;20473;-75
2022/11/12 05:51:00;;;;;;;0.40;0.40;;;;;;;13.10;90.01;101355.75;5065748;28;20104;-75
2022/11/12 05:53:25;;;;;;;0.32;0.32;;;;;;;13.07;90.61;101361.00;5064199;28;20358;-75
2022/11/12 05:55:51;;;;;;;7.88;2.90;;;;;;;13.07;90.44;101374.03;5065457;28;20053;-75
2022/11/12 05:58:16;;;;;;;0.40;0.40;;;;;;;13.14;90.24;101373.16;5065747;28;20031;-77
2022/11/12 06:00:42;;;;;;;0.40;0.40;;;;;;;13.05;90.25;101386.19;5063913;28;20028;-76
2022/11/12 06:03:08;;;;;;;0.40;0.40;;;;;;;13.05;90.66;101382.75;5064611;28;20035;-76
2022/11/12 06:05:34;;;;;;;0.70;0.70;;;;;;;13.09;90.46;101387.06;5065865;28;20078;-76
2022/11/12 06:08:00;;;;;;;33.63;2.47;;;;;;;13.04;90.71;101376.66;5065618;28;20025;-75
2022/11/12 06:10:26;;;;;;;0.40;0.40;;;;;;;13.02;90.82;101383.59;5064347;28;20029;-76
2022/11/12 06:12:52;;;;;;;0.50;0.50;;;;;;;13.06;90.91;101387.94;5065571;28;20457;-77
2022/11/12 06:15:18;;;;;;;0.40;0.40;;;;;;;13.04;90.55;101396.63;5064096;28;20083;-75
2022/11/12 06:17:44;;;;;;;0.40;0.40;;;;;;;13.04;90.50;101396.63;5065706;28;20035;-74
2022/11/12 06:20:10;;;;;;;0.40;0.40;;;;;;;13.03;90.62;101401.00;5065530;28;20095;-75
2022/11/12 06:22:35;;;;;;;0.77;0.77;;;;;;;13.11;90.40;101403.56;5065679;28;20017;-75
2022/11/12 06:25:01;;;;;;;7.78;3.40;;;;;;;13.06;90.17;101426.16;5063853;28;20600;-75
2022/11/12 06:27:26;;;;;;;0.40;0.40;;;;;;;13.10;89.90;101420.09;5063867;28;20021;-75
2022/11/12 06:29:51;;;;;;;0.60;0.60;;;;;;;13.08;90.14;101429.66;5063564;28;20025;-76
2022/11/12 06:32:17;;;;;;;0.43;0.43;;;;;;;13.11;89.93;101446.16;5063608;28;20511;-75
2022/11/12 06:34:43;;;;;;;3.80;2.22;;;;;;;13.14;89.60;101443.56;5065363;28;20028;-76
2022/11/12 06:37:08;;;;;;;2.15;2.05;;;;;;;13.14;89.79;101448.75;5063860;28;20021;-74
2022/11/12 06:39:33;;;;;;;1.65;1.65;;;;;;;13.09;89.50;101437.47;5065111;28;20386;-76
2022/11/12 06:42:00;;;;;;;0.30;0.30;;;;;;;13.05;89.84;101430.50;5065218;28;20017;-75
2022/11/12 06:44:26;;;;;;;0.40;0.40;;;;;;;13.08;89.61;101434.88;5063891;28;20017;-76
2022/11/12 06:46:51;;;;;;;1.25;1.25;;;;;;;13.06;89.75;101424.44;5069360;28;20440;-75
2022/11/12 06:49:17;;;;;;;0.90;0.90;;;;;;;13.01;89.51;101420.97;5067746;28;20454;-75
2022/11/12 06:51:42;;;;;;;0.95;0.95;;;;;;;13.02;89.56;101431.41;5069169;28;20021;-76
2022/11/12 06:54:07;;;;;;;0.40;0.40;;;;;;;12.97;89.71;101442.72;5067628;28;20436;-75
2022/11/12 06:56:33;;;;;;;0.40;0.40;;;;;;;13.02;89.85;101467.00;5067731;28;20044;-75
2022/11/12 06:58:58;;;;;;;0.40;0.40;;;;;;;13.01;89.89;101473.97;5069044;28;20108;-75
2022/11/12 07:01:24;;;;;;;0.63;0.63;;;;;;;13.04;89.88;101487.84;5069649;28;20032;-75
2022/11/12 07:03:53;;;;;;;0.40;0.40;;;;;;;13.02;89.46;101493.97;5069080;28;20052;-75
2022/11/12 07:06:19;;;;;;;3.50;3.20;;;;;;;13.05;89.79;101494.84;5069092;28;20036;-76
2022/11/12 07:08:48;;;;;;;0.40;0.40;;;;;;;13.02;89.44;101491.34;5069080;28;20027;-75
2022/11/12 07:11:14;;;;;;;2.15;1.58;;;;;;;13.08;89.50;101502.66;5067234;28;20028;-75
2022/11/12 07:13:40;;;;;;;0.35;0.35;;;;;;;13.04;89.69;101507.00;5068851;28;20073;-76
2022/11/12 07:16:09;;;;;;;6.15;3.75;;;;;;;13.08;89.43;101513.06;5068780;28;20028;-75
2022/11/12 07:18:35;;;;;;;0.40;0.40;;;;;;;13.04;89.35;101522.63;5067125;28;20024;-75
2022/11/12 07:21:02;;;;;;;0.40;0.40;;;;;;;13.02;89.53;101524.34;5068879;28;20033;-75
2022/11/12 07:23:29;;;;;;;0.85;0.85;;;;;;;13.01;89.82;101533.06;5068762;28;20074;-75
2022/11/12 07:26:00;;;;;;;0.40;0.40;;;;;;;12.95;89.82;101528.72;5068946;28;20021;-76
2022/11/12 07:28:26;;;;;;;0.40;0.40;;;;;;;13.02;89.41;101542.59;5068956;28;20422;-77
2022/11/12 07:31:06;;;;;;;0.38;0.38;;;;;;;13.02;89.57;101546.09;5068722;28;20420;-75
2022/11/12 07:33:32;;;;;;;0.40;0.40;;;;;;;13.05;89.80;101566.06;5068885;28;20110;-76
2022/11/12 07:36:09;;;;;;;0.65;0.65;;;;;;;13.06;89.40;101574.75;5068490;28;20080;-75
2022/11/12 07:38:37;;;;;;;0.50;0.50;;;;;;;13.06;89.39;101573.03;5066709;28;20048;-76
2022/11/12 07:41:05;;;;;;;0.40;0.40;;;;;;;13.09;89.55;101572.16;5068352;28;20025;-76
2022/11/12 07:43:32;;;;;;;0.40;0.40;;;;;;;13.09;89.60;101578.25;5068233;28;20016;-75
2022/11/12 07:46:02;;;;;;;0.40;0.40;;;;;;;13.07;89.33;101566.94;5067969;28;20048;-75
2022/11/12 07:48:29;;;;;;;7.47;3.67;;;;;;;13.09;89.33;101564.34;5068166;28;20099;-75
2022/11/12 07:51:06;;;;;;;0.30;0.30;;;;;;;13.07;89.18;101579.97;5068128;28;20051;-75
2022/11/12 07:53:32;;;;;;;0.40;0.40;;;;;;;13.12;89.10;101590.41;5066628;28;20495;-74
2022/11/12 07:56:00;;;;;;;0.40;0.40;;;;;;;13.09;89.50;101593.00;5066339;28;20052;-76
2022/11/12 07:58:26;;;;;;;0.93;0.93;;;;;;;13.11;89.09;101592.16;5066634;28;20051;-75
2022/11/12 08:00:52;;;;;;;0.32;0.32;;;;;;;13.17;89.22;101603.44;5066432;28;20036;-76
2022/11/12 08:03:19;;;;;;;3.05;2.50;;;;;;;13.13;89.29;101594.78;5066449;28;20025;-75
2022/11/12 08:05:44;;;;;;;0.30;0.30;;;;;;;13.16;89.19;101591.28;5066452;28;20070;-76
2022/11/12 08:08:10;;;;;;;0.40;0.40;;;;;;;13.19;89.49;101591.28;5067819;28;20032;-76
2022/11/12 08:10:36;;;;;;;0.60;0.60;;;;;;;13.20;89.07;101593.00;5067733;28;20021;-76
2022/11/12 08:13:02;;;;;;;0.32;0.32;;;;;;;13.23;89.16;101601.72;5066255;28;20025;-76
2022/11/12 08:15:27;;;;;;;0.40;0.40;;;;;;;13.20;89.42;101603.44;5066057;28;20024;-77
2022/11/12 08:17:52;;;;;;;1.10;1.00;;;;;;;13.28;88.91;101612.13;5066020;28;20021;-75
2022/11/12 08:20:17;;;;;;;0.47;0.47;;;;;;;13.32;88.87;101611.25;5065909;28;20029;-75
2022/11/12 08:22:43;;;;;;;4.15;2.38;;;;;;;13.36;88.56;101628.66;5067506;28;20043;-76
2022/11/12 08:25:08;;;;;;;3.70;2.50;;;;;;;13.29;88.89;101631.28;5067448;28;20032;-76
2022/11/12 08:27:34;;;;;;;0.30;0.30;;;;;;;13.25;88.77;101628.66;5067586;28;20098;-74
2022/11/12 08:29:59;;;;;;;0.40;0.40;;;;;;;13.36;88.33;101654.75;5065689;28;20029;-75
2022/11/12 08:32:25;;;;;;;0.30;0.30;;;;;;;13.42;88.47;101660.84;5065872;28;20029;-76
2022/11/12 08:34:50;;;;;;;0.30;0.30;;;;;;;13.41;88.39;101669.50;5065829;28;20029;-76
2022/11/12 08:37:15;;;;;;;0.40;0.40;;;;;;;13.41;88.65;101667.78;5065907;28;20017;-76
2022/11/12 08:39:41;;;;;;;0.40;0.40;;;;;;;13.42;88.63;101655.63;5067351;28;20163;-78
2022/11/12 08:42:06;;;;;;;0.55;0.55;;;;;;;13.45;88.29;101653.84;5067286;28;20048;-75
2022/11/12 08:44:31;;;;;;;3.50;3.30;;;;;;;13.39;87.69;101656.47;5065400;28;20476;-76
2022/11/12 08:46:58;;;;;;;0.55;0.55;;;;;;;13.31;87.82;101660.81;5065803;28;20115;-75
2022/11/12 08:49:23;;;;;;;2.17;1.88;;;;;;;13.35;87.62;101670.38;5065639;28;20024;-76
2022/11/12 08:51:48;;;;;;;0.40;0.40;;;;;;;13.32;88.20;101673.00;5066743;28;20399;-75
2022/11/12 08:54:14;;;;;;;0.82;0.82;;;;;;;13.35;87.93;101681.69;5066691;28;20080;-76
2022/11/12 08:56:39;;;;;;;17.27;3.10;;;;;;;13.42;87.68;101682.56;5048926;28;20554;-76
2022/11/12 08:59:05;;;;;;;0.40;0.40;;;;;;;13.48;86.65;101673.88;5048347;28;20036;-75
2022/11/12 09:01:30;;;;;;;0.30;0.30;;;;;;;13.42;87.75;101684.31;5066883;28;20025;-76
2022/11/12 09:03:55;;;;;;;4.85;1.67;;;;;;;13.42;87.88;101679.94;5066640;28;20442;-76
2022/11/12 09:06:21;;;;;;;0.40;0.40;;;;;;;13.36;87.12;101673.00;5066745;28;20028;-76
2022/11/12 09:08:46;;;;;;;0.35;0.35;;;;;;;13.41;87.20;101678.22;5065997;28;20021;-76
2022/11/12 09:11:12;;;;;;;0.30;0.30;;;;;;;13.41;86.93;101674.72;5048868;28;20025;-76
2022/11/12 09:13:37;;;;;;;0.32;0.32;;;;;;;13.48;87.36;101686.91;5066586;28;20021;-76
2022/11/12 09:16:05;;;;;;;0.40;0.40;;;;;;;13.48;87.27;101699.97;5066447;28;20027;-77
2022/11/12 09:18:31;;;;;;;4.93;4.63;;;;;;;13.44;87.11;101692.97;5066220;28;20523;-76
2022/11/12 09:21:08;;;;;;;0.88;0.88;;;;;;;13.48;86.65;101699.97;5066368;28;20033;-75
2022/11/12 09:23:34;;;;;;;0.40;0.40;;;;;;;13.48;86.40;101698.19;5048645;28;20469;-76
2022/11/12 09:26:00;;;;;;;2.83;2.65;;;;;;;13.49;86.73;101696.47;5066325;28;20052;-77
2022/11/12 09:28:26;;;;;;;0.70;0.70;;;;;;;13.56;86.27;101694.78;5066160;28;20017;-76
2022/11/12 09:30:53;;;;;;;1.13;1.13;;;;;;;13.54;86.29;101696.50;5066100;28;20025;-76
2022/11/12 09:33:24;;;;;;;0.60;0.60;;;;;;;13.63;86.67;101697.38;5048218;28;20025;-75
2022/11/12 09:35:50;;;;;;;0.98;0.98;;;;;;;13.70;86.36;101697.38;5048134;28;20056;-74
2022/11/12 09:38:16;;;;;;;0.85;0.85;;;;;;;13.85;85.77;101702.56;5065753;28;20032;-75
2022/11/12 09:40:50;;;;;;;10.82;4.53;;;;;;;14.00;84.71;101692.97;5066940;28;20428;-74
2022/11/12 09:43:41;;;;;;;12.73;4.95;;;;;;;14.24;83.81;101702.50;5066411;28;20017;-75
2022/11/12 09:46:25;;;;;;;0.40;0.40;;;;;;;14.32;83.47;101709.44;5047767;28;20060;-75
2022/11/12 09:49:20;;;;;;;0.40;0.40;;;;;;;14.35;83.51;101733.81;5047910;28;20476;-76
2022/11/12 09:51:53;;;;;;;0.30;0.30;;;;;;;14.44;82.77;101745.97;5047365;28;20040;-74
2022/11/12 09:54:25;;;;;;;1.73;1.63;;;;;;;14.36;82.66;101745.13;5065778;28;20021;-76
2022/11/12 09:56:51;;;;;;;0.40;0.40;;;;;;;14.35;82.62;101739.03;5065689;28;20032;-75
2022/11/12 09:59:17;;;;;;;0.30;0.30;;;;;;;14.29;82.39;101746.88;5065378;28;20368;-75
2022/11/12 10:02:22;;;;;;;0.40;0.40;;;;;;;14.13;81.32;101744.31;5066024;28;20074;-75
2022/11/12 10:05:02;;;;;;;0.88;0.88;;;;;;;14.06;81.36;101752.13;5065804;28;20028;-76
2022/11/12 10:08:05;;;;;;;0.50;0.50;;;;;;;14.07;81.97;101762.59;5047596;28;20025;-75
2022/11/12 10:10:46;;;;;;;0.35;0.35;;;;;;;14.09;81.95;101776.50;5065799;28;20021;-76
2022/11/12 10:13:31;;;;;;;0.32;0.32;;;;;;;14.06;81.71;101792.19;5047600;28;20049;-77
2022/11/12 10:19:22;;;;;;;0.90;0.90;;;;;;;13.94;81.61;101794.81;5064654;28;20039;-75
2022/11/12 10:22:12;;;;;;;1.33;0.93;;;;;;;13.90;81.21;101806.13;5065520;28;20029;-75
2022/11/12 10:24:40;;;;;;;0.40;0.40;;;;;;;13.78;81.87;101793.94;5047427;28;20080;-75
2022/11/12 10:27:17;;;;;;;0.57;0.57;;;;;;;13.76;81.88;101799.16;5065128;28;20031;-76
2022/11/12 10:29:59;;;;;;;0.75;0.75;;;;;;;13.84;82.33;101813.09;5065171;28;20048;-76
2022/11/12 10:32:25;;;;;;;0.30;0.30;;;;;;;13.81;81.98;101807.84;5047443;28;20051;-76
2022/11/12 10:34:50;;;;;;;0.50;0.50;;;;;;;13.82;81.71;101814.81;5065291;28;20021;-76
2022/11/12 10:37:54;;;;;;;0.40;0.40;;;;;;;13.82;81.73;101814.81;5047329;28;20021;-76
2022/11/12 10:40:19;;;;;;;0.38;0.38;;;;;;;13.79;82.02;101830.47;5023914;28;20037;-76
2022/11/12 10:42:54;;;;;;;0.30;0.30;;;;;;;13.75;81.75;101839.19;5065079;28;20076;-75
2022/11/12 10:45:22;;;;;;;0.30;0.30;;;;;;;13.71;82.02;101845.25;5065067;28;20036;-75
2022/11/12 10:47:47;;;;;;;0.52;0.52;;;;;;;13.70;82.06;101831.34;5064827;28;20102;-74
2022/11/12 10:50:39;;;;;;;1.48;1.38;;;;;;;13.79;82.25;101830.47;5065145;28;20464;-75
2022/11/12 10:53:06;;;;;;;0.50;0.50;;;;;;;13.78;82.31;101833.09;5065263;28;20147;-75
2022/11/12 10:55:37;;;;;;;0.60;0.60;;;;;;;13.72;81.61;101834.81;5064898;28;20053;-75
2022/11/12 10:58:06;;;;;;;0.40;0.40;;;;;;;13.71;82.44;101834.81;5064982;28;20110;-75
2022/11/12 11:00:31;;;;;;;0.45;0.45;;;;;;;13.78;82.32;101844.41;5047032;28;20025;-75
2022/11/12 11:02:59;;;;;;;0.30;0.30;;;;;;;13.85;82.31;101840.06;5047071;28;20035;-75
2022/11/12 11:05:36;;;;;;;0.47;0.47;;;;;;;13.91;82.08;101841.78;5064891;28;20017;-75
2022/11/12 11:08:03;;;;;;;0.40;0.40;;;;;;;13.99;82.04;101832.22;5047048;28;20024;-75
2022/11/12 11:10:35;;;;;;;0.68;0.68;;;;;;;14.03;81.73;101831.34;5065054;28;20497;-75
2022/11/12 11:13:26;;;;;;;0.85;0.85;;;;;;;13.98;81.30;101820.91;5046844;28;20044;-75
2022/11/12 11:16:03;;;;;;;0.40;0.40;;;;;;;14.08;81.46;101827.00;5046830;28;20031;-75
2022/11/12 11:18:31;;;;;;;0.55;0.55;;;;;;;14.13;81.26;101835.72;5064787;28;20388;-75
2022/11/12 11:21:18;;;;;;;0.40;0.40;;;;;;;14.22;81.40;101839.16;5064608;28;20430;-75
2022/11/12 11:23:56;;;;;;;0.40;0.40;;;;;;;14.38;81.19;101837.41;5047038;28;20021;-75
2022/11/12 11:26:35;;;;;;;0.40;0.40;;;;;;;14.36;80.63;101826.13;5046709;28;20029;-75
2022/11/12 11:29:24;;;;;;;0.30;0.30;;;;;;;14.30;80.84;101821.75;5046770;28;20049;-76
2022/11/12 11:32:22;;;;;;;0.40;0.40;;;;;;;14.29;80.70;101824.38;5049097;28;20094;-75
2022/11/12 11:35:04;;;;;;;0.40;0.40;;;;;;;14.32;80.23;101824.38;5029774;28;20110;-75
2022/11/12 11:37:31;;;;;;;0.40;0.40;;;;;;;14.23;80.41;101825.25;5050416;28;20040;-76
2022/11/12 11:40:05;;;;;;;0.70;0.70;;;;;;;14.16;80.42;101815.66;5068326;28;20057;-76
2022/11/12 11:42:43;;;;;;;1.67;1.58;;;;;;;14.34;80.29;101838.31;5068416;28;20020;-75
2022/11/12 11:45:16;;;;;;;0.40;0.40;;;;;;;14.47;80.88;101852.22;5068168;28;20089;-76
2022/11/12 11:48:20;;;;;;;1.30;1.30;;;;;;;14.52;79.85;101852.22;5050310;28;20084;-75
2022/11/12 11:51:10;;;;;;;0.30;0.30;;;;;;;14.38;78.55;101855.72;5067794;28;20060;-75
2022/11/12 11:53:59;;;;;;;0.40;0.40;;;;;;;14.29;78.82;101851.38;5068087;28;20032;-75
2022/11/12 11:56:41;;;;;;;0.30;0.30;;;;;;;14.24;78.95;101853.13;5067944;28;20044;-76
2022/11/12 11:59:19;;;;;;;0.40;0.40;;;;;;;14.27;79.32;101857.44;5067847;28;20035;-76
2022/11/12 12:01:56;;;;;;;0.30;0.30;;;;;;;14.36;79.08;101852.25;5068064;28;20029;-75